createdAt,value
2023-01-07T00:04:18.080Z,24.00
2023-01-07T00:19:21.959Z,29.50
2023-01-07T00:34:24.273Z,19.00
2023-01-07T00:49:26.701Z,22.00
2023-01-07T01:04:29.173Z,19.20
2023-01-07T01:19:31.437Z,18.70
2023-01-07T01:34:34.319Z,18.10
2023-01-07T01:49:36.627Z,15.90
2023-01-07T02:04:38.669Z,14.70
2023-01-07T02:19:40.479Z,13.10
2023-01-07T02:34:41.162Z,13.80
2023-01-07T02:49:42.080Z,13.10
2023-01-07T03:04:44.136Z,12.10
2023-01-07T03:19:46.595Z,13.40
2023-01-07T03:34:48.434Z,15.80
2023-01-07T03:49:50.724Z,12.90
2023-01-07T04:04:51.416Z,14.30
2023-01-07T04:19:53.069Z,10.60
2023-01-07T04:34:55.941Z,19.30
2023-01-07T04:49:56.938Z,26.00
2023-01-07T05:04:58.961Z,18.50
2023-01-07T05:20:00.011Z,33.00
2023-01-07T05:35:02.442Z,28.80
2023-01-07T05:50:04.026Z,42.70
2023-01-07T06:05:05.646Z,47.00
2023-01-07T06:20:06.095Z,38.20
2023-01-07T06:35:08.124Z,38.00
2023-01-07T06:50:08.956Z,39.10
2023-01-07T07:05:10.938Z,43.90
2023-01-07T07:20:12.694Z,54.90
2023-01-07T07:35:14.674Z,40.00
2023-01-07T07:50:15.168Z,43.40
2023-01-07T08:05:18.934Z,39.10
2023-01-07T08:20:19.417Z,41.50
2023-01-07T08:35:21.426Z,36.70
2023-01-07T08:50:23.234Z,38.80
2023-01-07T09:05:25.268Z,36.60
2023-01-07T09:20:27.541Z,32.00
2023-01-07T09:35:29.322Z,26.70
2023-01-07T09:50:32.951Z,17.60
2023-01-07T10:05:33.463Z,13.10
2023-01-07T10:20:35.551Z,10.40
2023-01-07T10:35:39.073Z,8.60
2023-01-07T10:50:39.568Z,7.20
2023-01-07T11:05:42.565Z,5.50
2023-01-07T11:20:43.778Z,6.60
2023-01-07T11:35:44.361Z,5.60
2023-01-07T11:50:44.853Z,4.50
2023-01-07T12:05:47.580Z,3.60
2023-01-07T12:20:49.963Z,3.20
2023-01-07T12:35:51.930Z,3.30
2023-01-07T12:50:53.353Z,2.00
2023-01-07T13:05:53.721Z,3.30
2023-01-07T13:20:54.902Z,2.90
2023-01-07T13:35:56.777Z,2.00
2023-01-07T13:50:57.842Z,2.00
2023-01-07T14:05:58.615Z,2.00
2023-01-07T14:20:59.073Z,2.50
2023-01-07T14:36:01.067Z,5.10
2023-01-07T14:51:02.811Z,3.40
2023-01-07T15:06:05.128Z,3.00
2023-01-07T15:21:05.297Z,3.40
2023-01-07T15:36:07.069Z,3.20
2023-01-07T15:51:07.414Z,3.30
2023-01-07T16:06:09.340Z,2.70
2023-01-07T16:21:09.845Z,6.80
2023-01-07T16:36:11.949Z,6.00
2023-01-07T16:51:15.478Z,3.90
2023-01-07T17:06:17.265Z,3.50
2023-01-07T17:21:19.253Z,6.80
2023-01-07T17:36:19.468Z,8.60
2023-01-07T17:51:20.065Z,3.80
2023-01-07T18:06:22.357Z,6.10
2023-01-07T18:21:24.903Z,3.20
2023-01-07T18:36:26.692Z,3.70
2023-01-07T18:51:28.901Z,3.80
2023-01-07T19:06:30.720Z,3.30
2023-01-07T19:21:31.665Z,2.90
2023-01-07T19:36:33.153Z,4.70
2023-01-07T19:51:34.967Z,3.50
2023-01-07T20:06:35.451Z,4.00
2023-01-07T20:21:36.143Z,4.50
2023-01-07T20:36:37.912Z,3.70
2023-01-07T20:51:40.205Z,4.10
2023-01-07T21:06:41.710Z,4.40
2023-01-07T21:21:44.094Z,4.90
2023-01-07T21:36:47.048Z,4.60
2023-01-07T21:51:53.323Z,3.50
2023-01-07T22:06:55.401Z,4.60
2023-01-07T22:21:57.371Z,4.20
2023-01-07T22:36:59.399Z,4.50
2023-01-07T22:52:02.361Z,5.00
2023-01-07T23:07:04.710Z,4.50
2023-01-07T23:22:07.091Z,4.90
2023-01-07T23:37:09.536Z,9.10
2023-01-07T23:52:11.295Z,5.70
